メインページ
METAR-TAF:

METAR-TAF

空港 :

アテネ, ギリシャ

アテネ国際空港

緯度: 37-56N, 経度: 023-56E, 海抜: 94m

現時点の気象観測

当レポートは37分前の05:20(UTC)に作成
の風 8kt
気温 28°C
湿度 28%
気圧 1013 hPa
視程10km以上
1,500メートル以下は雲なし、積乱雲なし

METAR: LGAV 200520Z 35008KT CAVOK 28/08 Q1013 NOSIG

時間: 08:57 (05:57 UTC)

予報

当レポートは57分前の05:00(UTC)に作成
予報は20日の 06時(UTC)から 21日の 06時(UTC)まで有効
北/北東の風 15kt
視程10km以上
高度2500ftの雲はほとんどない
20日の 08時(UTC)から 20日の 10時(UTC)まで徐々に
北/北東の風 22kt
20日の 14時(UTC)から 20日の 16時(UTC)まで徐々に
の風 12kt

TAF: LGAV 200500Z 2006/2106 02015KT 9999 FEW025 BECMG 2008/2010 03022KT BECMG 2014/2016 01012KT

4,000以上の空港の気象観測と天気予報(METAR報とTAF報)

利用可能な観測所は地図上に黄色い丸と赤い丸で示す。

丸の上にカーソルを重ねると観測所名を参照できる。

次にクリックすると気象観測と天気予報を参照できる。

マップの切り替え:黒色「×」印の緑ボタンをクリックして拡大、「-」印の緑ボタンをクリックして縮小、緑色の三角印をクリックして隣りの地図に切り替え


METAR-TAF: